createdAt,value
2018-06-03T00:00:47.740Z,101073.25
2018-06-03T00:03:15.142Z,101073.88
2018-06-03T00:05:42.536Z,101068.25
2018-06-03T00:08:09.969Z,101067.58
2018-06-03T00:10:37.436Z,101073.05
2018-06-03T00:13:04.832Z,101073.57
2018-06-03T00:15:32.232Z,101071.78
2018-06-03T00:17:59.641Z,101074.89
2018-06-03T00:23:55.013Z,101078.05
2018-06-03T00:26:23.094Z,101077.69
2018-06-03T00:28:51.129Z,101071.50
2018-06-03T00:31:19.138Z,101069.23
2018-06-03T00:33:47.145Z,101074.78
2018-06-03T00:36:26.826Z,101075.91
2018-06-03T00:38:54.849Z,101072.81
2018-06-03T00:41:22.868Z,101076.03
2018-06-03T00:43:50.950Z,101074.19
2018-06-03T00:46:18.964Z,101077.44
2018-06-03T00:48:46.970Z,101080.85
2018-06-03T00:51:15.094Z,101080.48
2018-06-03T00:53:43.097Z,101077.97
2018-06-03T00:56:16.316Z,101080.44
2018-06-03T00:58:44.353Z,101078.05
2018-06-03T01:01:12.362Z,101078.05
2018-06-03T01:03:40.392Z,101079.29
2018-06-03T01:06:08.429Z,101081.39
2018-06-03T01:08:36.434Z,101084.44
2018-06-03T01:11:04.440Z,101083.10
2018-06-03T01:13:32.449Z,101081.36
2018-06-03T01:16:00.512Z,101081.44
2018-06-03T01:18:28.506Z,101075.66
2018-06-03T01:20:56.520Z,101087.34
2018-06-03T01:23:24.614Z,101080.02
2018-06-03T01:25:52.633Z,101087.72
2018-06-03T01:28:20.649Z,101087.56
2018-06-03T01:30:48.670Z,101085.38
2018-06-03T01:33:16.709Z,101086.64
2018-06-03T01:35:44.745Z,101079.30
2018-06-03T01:38:12.801Z,101078.38
2018-06-03T01:40:40.849Z,101079.97
2018-06-03T01:43:08.893Z,101080.43
2018-06-03T01:45:36.974Z,101074.78
2018-06-03T01:48:05.053Z,101073.10
2018-06-03T01:50:33.097Z,101079.59
2018-06-03T01:53:01.142Z,101072.27
2018-06-03T01:55:29.213Z,101068.09
2018-06-03T01:57:57.266Z,101069.12
2018-06-03T02:00:25.260Z,101068.77
2018-06-03T02:02:53.313Z,101065.81
2018-06-03T02:05:21.365Z,101066.61
2018-06-03T02:07:49.369Z,101068.70
2018-06-03T02:10:17.381Z,101065.75
2018-06-03T02:12:46.428Z,101063.31
2018-06-03T02:15:14.461Z,101063.54
2018-06-03T02:17:42.517Z,101064.05
2018-06-03T02:20:10.546Z,101059.49
2018-06-03T02:22:38.557Z,101062.92
2018-06-03T02:25:06.578Z,101059.30
2018-06-03T02:27:34.620Z,101066.42
2018-06-03T02:30:02.670Z,101060.32
2018-06-03T02:32:30.695Z,101063.27
2018-06-03T02:34:58.732Z,101056.73
2018-06-03T02:37:26.781Z,101059.78
2018-06-03T02:39:55.725Z,101059.89
2018-06-03T02:42:23.777Z,101053.98
2018-06-03T02:44:51.805Z,101056.23
2018-06-03T02:47:19.786Z,101062.57
2018-06-03T02:49:47.811Z,101065.22
2018-06-03T02:52:15.854Z,101059.22
2018-06-03T02:54:43.866Z,101063.64
2018-06-03T02:57:11.874Z,101064.48
2018-06-03T02:59:39.889Z,101066.56
2018-06-03T03:02:07.931Z,101064.38
2018-06-03T03:04:35.938Z,101065.62
2018-06-03T03:07:03.946Z,101067.16
2018-06-03T03:09:31.948Z,101073.44
2018-06-03T03:12:00.005Z,101077.29
2018-06-03T03:14:28.016Z,101074.88
2018-06-03T03:16:56.044Z,101076.95
2018-06-03T03:19:24.106Z,101071.95
2018-06-03T03:21:52.283Z,101067.52
2018-06-03T03:24:20.354Z,101073.32
2018-06-03T03:26:48.385Z,101066.27
2018-06-03T03:29:16.381Z,101068.06
2018-06-03T03:31:44.415Z,101070.91
2018-06-03T03:34:12.425Z,101067.46
2018-06-03T03:36:40.437Z,101069.20
2018-06-03T03:39:08.456Z,101069.66
2018-06-03T03:41:36.494Z,101071.20
2018-06-03T03:44:04.573Z,101068.84
2018-06-03T03:46:32.650Z,101067.06
2018-06-03T03:49:00.681Z,101063.67
2018-06-03T03:51:28.742Z,101067.35
2018-06-03T03:53:56.760Z,101072.11
2018-06-03T03:56:24.798Z,101071.58
2018-06-03T03:58:52.889Z,101073.56
2018-06-03T04:01:20.885Z,101078.48
2018-06-03T04:03:49.087Z,101078.70
2018-06-03T04:06:17.125Z,101079.47
2018-06-03T04:08:45.126Z,101080.69
2018-06-03T04:11:13.181Z,101088.94
2018-06-03T04:13:41.276Z,101087.85
2018-06-03T04:16:09.335Z,101085.53
2018-06-03T04:18:37.372Z,101090.98
2018-06-03T04:21:05.405Z,101083.45
2018-06-03T04:23:33.433Z,101084.73
2018-06-03T04:26:01.462Z,101082.55
2018-06-03T04:28:29.539Z,101079.36
2018-06-03T04:30:57.528Z,101078.06
2018-06-03T04:33:25.549Z,101078.47
2018-06-03T04:35:53.621Z,101083.07
2018-06-03T04:38:22.261Z,101085.03
2018-06-03T04:40:50.326Z,101086.33
2018-06-03T04:43:18.383Z,101086.14
2018-06-03T04:45:46.418Z,101081.73
2018-06-03T04:48:14.417Z,101086.65
2018-06-03T04:50:42.481Z,101081.00
2018-06-03T04:53:10.493Z,101086.33
2018-06-03T04:55:38.635Z,101077.86
2018-06-03T04:58:06.670Z,101077.44
2018-06-03T05:00:34.692Z,101077.34
2018-06-03T05:03:02.698Z,101075.24
2018-06-03T05:05:30.750Z,101076.91
2018-06-03T05:07:58.845Z,101089.31
2018-06-03T05:10:26.868Z,101087.30
2018-06-03T05:12:54.940Z,101085.22
2018-06-03T05:15:22.970Z,101082.13
2018-06-03T05:17:50.968Z,101075.89
2018-06-03T05:20:18.981Z,101077.05
2018-06-03T05:22:47.013Z,101076.02
2018-06-03T05:25:15.025Z,101084.14
2018-06-03T05:27:43.036Z,101079.39
2018-06-03T05:30:11.074Z,101089.47
2018-06-03T05:32:39.129Z,101092.38
2018-06-03T05:35:07.165Z,101091.48
2018-06-03T05:37:35.314Z,101090.92
2018-06-03T05:40:03.329Z,101081.88
2018-06-03T05:42:31.423Z,101092.70
2018-06-03T05:44:59.410Z,101086.11
2018-06-03T05:47:27.472Z,101088.43
2018-06-03T05:49:55.491Z,101086.02
2018-06-03T05:52:23.524Z,101095.94
2018-06-03T05:54:51.521Z,101090.24
2018-06-03T05:57:19.536Z,101088.89
2018-06-03T05:59:47.578Z,101092.57
2018-06-03T06:02:15.697Z,101092.62
2018-06-03T06:04:43.769Z,101094.59
2018-06-03T06:07:11.783Z,101092.22
2018-06-03T06:09:39.827Z,101094.95
2018-06-03T06:12:07.882Z,101100.64
2018-06-03T06:14:35.976Z,101101.55
2018-06-03T06:17:04.019Z,101101.50
2018-06-03T06:19:32.014Z,101110.22
2018-06-03T06:22:00.044Z,101111.73
2018-06-03T06:24:28.065Z,101108.91
2018-06-03T06:26:56.129Z,101113.23
2018-06-03T06:29:24.150Z,101118.64
2018-06-03T06:31:52.198Z,101118.48
2018-06-03T06:34:20.202Z,101118.67
2018-06-03T06:36:48.222Z,101115.16
2018-06-03T06:39:16.298Z,101116.67
2018-06-03T06:41:44.329Z,101118.02
2018-06-03T06:44:12.347Z,101118.37
2018-06-03T06:46:40.361Z,101118.72
2018-06-03T06:49:08.385Z,101119.92
2018-06-03T06:51:36.513Z,101124.46
2018-06-03T06:54:04.525Z,101127.12
2018-06-03T06:56:32.549Z,101125.58
2018-06-03T06:59:00.581Z,101126.77
2018-06-03T07:01:28.613Z,101130.20
2018-06-03T07:03:56.713Z,101130.02
2018-06-03T07:06:24.731Z,101136.22
2018-06-03T07:08:52.748Z,101139.75
2018-06-03T07:11:20.783Z,101137.64
2018-06-03T07:13:48.821Z,101136.95
2018-06-03T07:16:16.861Z,101137.12
2018-06-03T07:18:44.865Z,101143.50
2018-06-03T07:21:12.882Z,101145.84
2018-06-03T07:23:40.892Z,101145.22
2018-06-03T07:26:08.925Z,101146.91
2018-06-03T07:28:37.030Z,101148.50
2018-06-03T07:31:05.063Z,101151.58
2018-06-03T07:33:33.078Z,101152.46
2018-06-03T07:36:01.093Z,101150.50
2018-06-03T07:38:29.161Z,101154.98
2018-06-03T07:40:57.205Z,101157.04
2018-06-03T07:43:25.235Z,101159.55
2018-06-03T07:45:53.288Z,101157.40
2018-06-03T07:48:21.517Z,101164.22
2018-06-03T07:50:49.653Z,101162.58
2018-06-03T07:53:17.729Z,101159.79
2018-06-03T07:55:45.822Z,101162.33
2018-06-03T07:58:13.822Z,101163.68
2018-06-03T08:00:41.813Z,101161.38
2018-06-03T08:03:09.830Z,101160.98
2018-06-03T08:05:37.864Z,101170.41
2018-06-03T08:08:05.908Z,101168.59
2018-06-03T08:10:33.950Z,101171.83
2018-06-03T08:13:01.955Z,101168.27
2018-06-03T08:15:30.125Z,101166.93
2018-06-03T08:17:58.081Z,101165.97
2018-06-03T08:20:26.153Z,101167.45
2018-06-03T08:22:54.322Z,101157.36
2018-06-03T08:25:22.281Z,101168.31
2018-06-03T08:27:50.297Z,101160.50
2018-06-03T08:30:18.299Z,101156.58
2018-06-03T08:32:46.318Z,101163.59
2018-06-03T08:35:14.332Z,101159.15
2018-06-03T08:37:42.414Z,101160.47
2018-06-03T08:40:10.445Z,101157.95
2018-06-03T08:42:38.548Z,101160.89
2018-06-03T08:45:06.589Z,101158.97
2018-06-03T08:47:34.605Z,101158.34
2018-06-03T08:50:02.762Z,101164.14
2018-06-03T08:52:30.785Z,101160.48
2018-06-03T08:54:58.809Z,101161.42
2018-06-03T08:57:26.944Z,101162.72
2018-06-03T08:59:55.045Z,101165.80
2018-06-03T09:02:23.090Z,101167.41
2018-06-03T09:04:51.085Z,101165.25
2018-06-03T09:07:19.094Z,101159.80
2018-06-03T09:09:47.106Z,101160.22
2018-06-03T09:12:15.136Z,101161.39
2018-06-03T09:14:43.160Z,101168.58
2018-06-03T09:17:11.168Z,101160.35
2018-06-03T09:19:39.194Z,101171.81
2018-06-03T09:22:07.251Z,101164.53
2018-06-03T09:24:35.290Z,101163.94
2018-06-03T09:27:03.291Z,101162.78
2018-06-03T09:29:31.322Z,101166.98
2018-06-03T09:31:59.333Z,101161.84
2018-06-03T09:34:27.325Z,101157.86
2018-06-03T09:36:55.329Z,101152.64
2018-06-03T09:39:23.322Z,101151.58
2018-06-03T09:41:51.325Z,101150.09
2018-06-03T09:44:19.331Z,101146.27
2018-06-03T09:46:47.357Z,101145.02
2018-06-03T09:49:15.358Z,101152.13
2018-06-03T09:51:43.366Z,101148.47
2018-06-03T09:54:11.384Z,101151.52
2018-06-03T09:56:39.488Z,101151.35
2018-06-03T09:59:07.530Z,101151.17
2018-06-03T10:01:35.545Z,101154.19
2018-06-03T10:04:03.570Z,101157.25
2018-06-03T10:06:31.622Z,101149.64
2018-06-03T10:08:59.757Z,101152.14
2018-06-03T10:11:27.777Z,101152.94
2018-06-03T10:13:55.812Z,101151.74
2018-06-03T10:16:23.865Z,101152.30
2018-06-03T10:18:51.926Z,101151.36
2018-06-03T10:21:19.951Z,101141.84
2018-06-03T10:23:47.973Z,101147.59
2018-06-03T10:26:15.981Z,101145.49
2018-06-03T10:28:44.037Z,101146.55
2018-06-03T10:31:12.007Z,101144.08
2018-06-03T10:33:40.053Z,101139.34
2018-06-03T10:36:08.046Z,101146.45
2018-06-03T10:38:36.090Z,101140.86
2018-06-03T10:41:04.092Z,101145.92
2018-06-03T10:43:32.114Z,101142.41
2018-06-03T10:46:00.133Z,101149.80
2018-06-03T10:48:28.146Z,101145.74
2018-06-03T10:50:56.246Z,101135.19
2018-06-03T10:53:24.243Z,101138.59
2018-06-03T10:55:52.278Z,101141.15
2018-06-03T10:58:20.294Z,101135.52
2018-06-03T11:00:48.307Z,101137.73
2018-06-03T11:03:16.406Z,101131.69
2018-06-03T11:05:44.964Z,101125.42
2018-06-03T11:08:12.985Z,101123.66
2018-06-03T11:10:40.976Z,101121.44
2018-06-03T11:13:09.034Z,101127.81
2018-06-03T11:15:37.025Z,101122.37
2018-06-03T11:18:05.681Z,101131.78
2018-06-03T11:20:33.705Z,101125.49
2018-06-03T11:23:01.773Z,101121.73
2018-06-03T11:25:29.818Z,101121.41
2018-06-03T11:27:57.852Z,101120.79
2018-06-03T11:30:26.308Z,101118.42
2018-06-03T11:32:54.321Z,101111.27
2018-06-03T11:35:22.344Z,101110.20
2018-06-03T11:37:50.382Z,101112.28
2018-06-03T11:40:18.430Z,101109.12
2018-06-03T11:42:46.472Z,101111.67
2018-06-03T11:45:14.471Z,101109.17
2018-06-03T11:47:42.501Z,101104.84
2018-06-03T11:50:10.519Z,101102.67
2018-06-03T11:52:38.588Z,101105.90
2018-06-03T11:55:06.617Z,101113.86
2018-06-03T11:57:46.329Z,101115.52
2018-06-03T12:00:14.370Z,101120.46
2018-06-03T12:02:42.385Z,101119.45
2018-06-03T12:05:10.411Z,101121.01
2018-06-03T12:07:38.452Z,101109.80
2018-06-03T12:10:06.517Z,101102.81
2018-06-03T12:12:34.520Z,101101.25
2018-06-03T12:15:02.593Z,101103.45
2018-06-03T12:17:30.624Z,101107.02
2018-06-03T12:19:58.690Z,101092.34
2018-06-03T12:22:26.777Z,101091.71
2018-06-03T12:24:54.847Z,101095.45
2018-06-03T12:27:22.830Z,101090.84
2018-06-03T12:29:50.865Z,101091.16
2018-06-03T12:32:18.881Z,101089.25
2018-06-03T12:34:46.934Z,101090.83
2018-06-03T12:37:15.046Z,101086.86
2018-06-03T12:39:43.087Z,101085.18
2018-06-03T12:42:11.125Z,101088.84
2018-06-03T12:44:39.157Z,101083.92
2018-06-03T12:47:07.170Z,101082.14
2018-06-03T12:49:35.232Z,101078.90
2018-06-03T12:52:03.271Z,101080.98
2018-06-03T12:54:31.294Z,101078.61
2018-06-03T12:56:59.330Z,101079.20
2018-06-03T12:59:27.369Z,101074.59
2018-06-03T13:01:55.865Z,101069.95
2018-06-03T13:04:23.882Z,101067.87
2018-06-03T13:06:51.876Z,101066.15
2018-06-03T13:09:19.938Z,101068.75
2018-06-03T13:11:48.058Z,101069.62
2018-06-03T13:14:16.210Z,101070.90
2018-06-03T13:16:44.223Z,101065.70
2018-06-03T13:19:12.385Z,101069.77
2018-06-03T13:21:40.485Z,101063.46
2018-06-03T13:24:08.501Z,101063.95
2018-06-03T13:26:37.044Z,101062.59
2018-06-03T13:29:05.125Z,101057.27
2018-06-03T13:31:33.134Z,101057.91
2018-06-03T13:34:01.150Z,101056.52
2018-06-03T13:36:29.164Z,101050.75
2018-06-03T13:38:57.210Z,101055.54
2018-06-03T13:41:25.258Z,101052.75
2018-06-03T13:43:53.286Z,101050.30
2018-06-03T13:46:21.434Z,101045.12
2018-06-03T13:48:49.492Z,101042.40
2018-06-03T13:51:17.601Z,101034.69
2018-06-03T13:53:45.634Z,101037.96
2018-06-03T13:56:14.569Z,101036.85
2018-06-03T13:58:42.587Z,101029.86
2018-06-03T14:01:10.609Z,101024.73
2018-06-03T14:03:38.642Z,101020.69
2018-06-03T14:06:06.738Z,101015.45
2018-06-03T14:08:34.847Z,101016.39
2018-06-03T14:11:02.889Z,101012.72
2018-06-03T14:13:30.912Z,101015.16
2018-06-03T14:15:58.956Z,101018.72
2018-06-03T14:18:26.969Z,101013.92
2018-06-03T14:20:55.005Z,101017.23
2018-06-03T14:23:23.052Z,101015.22
2018-06-03T14:25:51.054Z,101015.06
2018-06-03T14:28:19.068Z,101005.56
2018-06-03T14:30:47.077Z,101006.43
2018-06-03T14:33:15.138Z,101005.97
2018-06-03T14:35:43.142Z,101003.39
2018-06-03T14:38:11.244Z,101000.42
2018-06-03T14:40:39.229Z,101003.64
2018-06-03T14:43:07.245Z,101001.59
2018-06-03T14:45:35.278Z,101001.91
2018-06-03T14:48:03.311Z,100992.69
2018-06-03T14:50:31.456Z,100994.86
2018-06-03T14:52:59.449Z,100987.13
2018-06-03T14:55:27.468Z,100980.25
2018-06-03T14:57:55.457Z,100977.87
2018-06-03T15:00:23.392Z,100977.74
2018-06-03T15:02:51.396Z,100975.15
2018-06-03T15:05:20.418Z,100978.58
2018-06-03T15:07:48.435Z,100968.25
2018-06-03T15:10:16.433Z,100961.99
2018-06-03T15:12:44.530Z,100964.41
2018-06-03T15:15:12.530Z,100959.13
2018-06-03T15:17:40.530Z,100961.88
2018-06-03T15:20:08.581Z,100955.31
2018-06-03T15:22:36.779Z,100957.75
2018-06-03T15:25:04.898Z,100953.01
2018-06-03T15:27:33.026Z,100955.00
2018-06-03T15:30:01.050Z,100947.35
2018-06-03T15:32:29.228Z,100949.77
2018-06-03T15:34:57.337Z,100949.70
2018-06-03T15:37:25.337Z,100940.83
2018-06-03T15:39:53.375Z,100941.84
2018-06-03T15:42:21.410Z,100946.61
2018-06-03T15:44:49.508Z,100934.84
2018-06-03T15:47:17.553Z,100936.75
2018-06-03T15:49:45.615Z,100939.03
2018-06-03T15:52:13.704Z,100938.17
2018-06-03T15:54:41.713Z,100936.45
2018-06-03T15:57:09.734Z,100942.83
2018-06-03T15:59:37.754Z,100941.50
2018-06-03T16:02:05.941Z,100935.55
2018-06-03T16:04:33.988Z,100933.28
2018-06-03T16:07:01.994Z,100934.03
2018-06-03T16:09:30.043Z,100929.39
2018-06-03T16:11:58.065Z,100935.35
2018-06-03T16:14:26.105Z,100927.16
2018-06-03T16:16:54.111Z,100926.56
2018-06-03T16:19:22.194Z,100919.84
2018-06-03T16:21:50.508Z,100925.32
2018-06-03T16:24:18.584Z,100919.39
2018-06-03T16:26:47.297Z,100916.95
2018-06-03T16:29:15.285Z,100917.12
2018-06-03T16:31:43.381Z,100912.95
2018-06-03T16:34:11.345Z,100911.66
2018-06-03T16:36:39.424Z,100916.36
2018-06-03T16:39:07.789Z,100913.46
2018-06-03T16:41:35.882Z,100912.92
2018-06-03T16:44:04.126Z,100909.00
2018-06-03T16:46:32.137Z,100911.22
2018-06-03T16:49:00.216Z,100905.49
2018-06-03T16:51:28.231Z,100908.17
2018-06-03T16:53:56.241Z,100903.02
2018-06-03T16:56:24.349Z,100897.05
2018-06-03T16:58:52.437Z,100905.02
2018-06-03T17:01:20.437Z,100890.73
2018-06-03T17:03:48.491Z,100890.17
2018-06-03T17:06:16.517Z,100882.28
2018-06-03T17:08:44.545Z,100884.69
2018-06-03T17:11:12.821Z,100886.97
2018-06-03T17:13:40.898Z,100887.84
2018-06-03T17:16:08.985Z,100879.11
2018-06-03T17:18:36.994Z,100881.16
2018-06-03T17:21:05.291Z,100882.89
2018-06-03T17:23:33.339Z,100884.11
2018-06-03T17:26:01.400Z,100880.59
2018-06-03T17:28:29.445Z,100874.21
2018-06-03T17:30:57.513Z,100876.45
2018-06-03T17:33:25.643Z,100876.38
2018-06-03T17:35:53.700Z,100865.31
2018-06-03T17:38:21.745Z,100869.92
2018-06-03T17:40:49.772Z,100867.81
2018-06-03T17:43:17.832Z,100865.69
2018-06-03T17:45:45.885Z,100872.06
2018-06-03T17:48:13.934Z,100868.83
2018-06-03T17:50:42.985Z,100864.22
2018-06-03T17:53:11.019Z,100863.06
2018-06-03T17:55:39.081Z,100859.28
2018-06-03T17:58:07.274Z,100856.79
2018-06-03T18:03:00.205Z,100855.44
2018-06-03T18:05:28.235Z,100860.28
2018-06-03T18:07:56.239Z,100850.46
2018-06-03T18:10:24.345Z,100852.20
2018-06-03T18:12:52.408Z,100849.89
2018-06-03T18:15:20.438Z,100851.95
2018-06-03T18:17:48.470Z,100850.59
2018-06-03T18:20:16.557Z,100852.03
2018-06-03T18:22:44.558Z,100851.69
2018-06-03T18:25:12.585Z,100849.98
2018-06-03T18:27:40.613Z,100847.69
2018-06-03T18:30:08.638Z,100844.06
2018-06-03T18:32:36.695Z,100842.57
2018-06-03T18:35:04.707Z,100850.36
2018-06-03T18:37:32.761Z,100852.78
2018-06-03T18:40:00.988Z,100849.66
2018-06-03T18:42:29.014Z,100855.08
2018-06-03T18:44:57.071Z,100850.48
2018-06-03T18:47:25.122Z,100845.72
2018-06-03T18:49:53.125Z,100846.87
2018-06-03T18:52:21.273Z,100847.05
2018-06-03T18:54:49.298Z,100841.58
2018-06-03T18:57:17.310Z,100840.42
2018-06-03T18:59:45.358Z,100838.90
2018-06-03T19:02:13.401Z,100841.84
2018-06-03T19:04:41.425Z,100834.70
2018-06-03T19:07:09.453Z,100842.00
2018-06-03T19:09:37.487Z,100834.42
2018-06-03T19:12:05.538Z,100844.92
2018-06-03T19:14:33.614Z,100843.03
2018-06-03T19:17:01.651Z,100839.98
2018-06-03T19:19:29.677Z,100839.89
2018-06-03T19:21:57.730Z,100844.67
2018-06-03T19:24:26.461Z,100848.48
2018-06-03T19:26:54.506Z,100844.99
2018-06-03T19:29:22.896Z,100842.34
2018-06-03T19:31:50.923Z,100844.22
2018-06-03T19:34:18.957Z,100844.39
2018-06-03T19:36:47.010Z,100845.23
2018-06-03T19:39:15.009Z,100849.44
2018-06-03T19:41:43.021Z,100848.76
2018-06-03T19:44:11.048Z,100840.37
2018-06-03T19:46:39.071Z,100848.45
2018-06-03T19:49:07.061Z,100850.16
2018-06-03T19:51:35.136Z,100841.59
2018-06-03T19:54:03.141Z,100844.77
2018-06-03T19:56:31.165Z,100848.14
2018-06-03T19:58:59.233Z,100840.43
2018-06-03T20:01:27.281Z,100845.47
2018-06-03T20:03:55.330Z,100841.93
2018-06-03T20:06:23.449Z,100842.77
2018-06-03T20:08:51.376Z,100835.34
2018-06-03T20:11:19.402Z,100833.33
2018-06-03T20:13:47.510Z,100832.48
2018-06-03T20:16:15.517Z,100841.09
2018-06-03T20:18:43.615Z,100841.09
2018-06-03T20:21:11.622Z,100847.50
2018-06-03T20:23:39.647Z,100845.80
2018-06-03T20:26:07.713Z,100847.81
2018-06-03T20:28:35.753Z,100848.65
2018-06-03T20:31:03.764Z,100856.90
2018-06-03T20:33:31.816Z,100853.14
2018-06-03T20:35:59.808Z,100846.73
2018-06-03T20:38:27.904Z,100852.14
2018-06-03T20:40:55.943Z,100848.42
2018-06-03T20:43:24.881Z,100851.78
2018-06-03T20:45:52.881Z,100853.47
2018-06-03T20:48:20.883Z,100846.73
2018-06-03T20:50:48.908Z,100848.05
2018-06-03T20:53:17.972Z,100847.72
2018-06-03T20:55:46.014Z,100849.00
2018-06-03T20:58:14.047Z,100857.72
2018-06-03T21:00:42.081Z,100858.40
2018-06-03T21:03:10.133Z,100863.09
2018-06-03T21:05:38.151Z,100868.63
2018-06-03T21:08:06.145Z,100872.12
2018-06-03T21:10:34.171Z,100863.69
2018-06-03T21:13:02.191Z,100861.63
2018-06-03T21:15:30.242Z,100860.77
2018-06-03T21:17:58.277Z,100857.02
2018-06-03T21:20:26.329Z,100863.89
2018-06-03T21:22:54.344Z,100858.11
2018-06-03T21:25:22.358Z,100862.80
2018-06-03T21:27:50.421Z,100862.90
2018-06-03T21:30:18.477Z,100865.87
2018-06-03T21:32:46.512Z,100871.05
2018-06-03T21:35:14.543Z,100865.58
2018-06-03T21:37:42.599Z,100865.77
2018-06-03T21:40:10.636Z,100861.55
2018-06-03T21:42:38.650Z,100863.22
2018-06-03T21:45:06.650Z,100864.66
2018-06-03T21:47:34.638Z,100858.77
2018-06-03T21:50:02.697Z,100858.41
2018-06-03T21:52:30.705Z,100857.06
2018-06-03T21:54:59.795Z,100856.84
2018-06-03T21:57:27.950Z,100849.95
2018-06-03T21:59:55.975Z,100851.28
2018-06-03T22:02:23.985Z,100853.58
2018-06-03T22:04:52.029Z,100849.96
2018-06-03T22:07:20.038Z,100858.20
2018-06-03T22:09:48.066Z,100862.42
2018-06-03T22:12:16.109Z,100859.91
2018-06-03T22:14:44.155Z,100853.98
2018-06-03T22:17:12.172Z,100853.52
2018-06-03T22:19:40.191Z,100849.63
2018-06-03T22:22:08.215Z,100844.08
2018-06-03T22:24:36.217Z,100847.41
2018-06-03T22:27:04.235Z,100852.25
2018-06-03T22:29:32.259Z,100850.55
2018-06-03T22:32:00.289Z,100851.00
2018-06-03T22:34:28.294Z,100858.78
2018-06-03T22:36:56.301Z,100859.16
2018-06-03T22:39:24.345Z,100859.08
2018-06-03T22:41:52.376Z,100862.59
2018-06-03T22:44:20.420Z,100862.91
2018-06-03T22:46:48.455Z,100864.55
2018-06-03T22:49:16.516Z,100860.73
2018-06-03T22:51:44.532Z,100861.77
2018-06-03T22:54:12.560Z,100855.94
2018-06-03T22:56:52.004Z,100859.45
2018-06-03T22:59:20.442Z,100863.61
2018-06-03T23:01:48.470Z,100860.73
2018-06-03T23:04:16.553Z,100864.11
2018-06-03T23:06:44.557Z,100851.50
2018-06-03T23:09:12.614Z,100846.48
2018-06-03T23:11:40.650Z,100848.27
2018-06-03T23:14:08.644Z,100845.98
2018-06-03T23:16:36.706Z,100845.29
2018-06-03T23:19:04.793Z,100845.66
2018-06-03T23:21:32.789Z,100853.70
2018-06-03T23:24:00.821Z,100854.64
2018-06-03T23:26:28.849Z,100853.87
2018-06-03T23:28:56.886Z,100850.95
2018-06-03T23:31:24.886Z,100842.32
2018-06-03T23:33:53.521Z,100845.50
2018-06-03T23:36:21.568Z,100842.52
2018-06-03T23:38:49.623Z,100835.39
2018-06-03T23:41:17.667Z,100839.44
2018-06-03T23:43:45.663Z,100833.53
2018-06-03T23:46:13.676Z,100835.52
2018-06-03T23:48:41.718Z,100833.39
2018-06-03T23:51:09.734Z,100829.12
2018-06-03T23:53:37.748Z,100826.33
2018-06-03T23:56:05.773Z,100822.50
2018-06-03T23:58:33.768Z,100822.03
